Time;durP1;ratioP1;P1;durP2;ratioP2;P2;SDS_P1;SDS_P2;PMS_P1;PMS_P2;Temp;Humidity;BMP_temperature;BMP_pressure;BME280_temperature;BME280_humidity;BME280_pressure;Samples;Min_cycle;Max_cycle;Signal;HPM_P1;HPM_P2
2022/07/02 00:01:59;;;;;;;1.77;0.67;;;16.10;99.90;;;;;;5091257;28;21012;-47
2022/07/02 00:04:28;;;;;;;2.10;0.83;;;16.10;99.90;;;;;;5091155;28;20821;-47
2022/07/02 00:06:55;;;;;;;1.63;0.70;;;16.10;99.90;;;;;;5091000;28;20538;-48
2022/07/02 00:09:23;;;;;;;1.03;0.57;;;16.10;99.90;;;;;;5091016;28;20479;-49
2022/07/02 00:11:50;;;;;;;1.10;0.90;;;16.10;99.90;;;;;;5091036;28;20518;-47
2022/07/02 00:14:17;;;;;;;1.30;0.70;;;16.00;99.90;;;;;;5090789;28;20511;-47
2022/07/02 00:16:45;;;;;;;1.20;0.70;;;15.90;99.90;;;;;;5090497;28;20485;-48
2022/07/02 00:19:14;;;;;;;1.40;0.50;;;16.00;99.90;;;;;;5090352;28;20979;-47
2022/07/02 00:21:41;;;;;;;2.63;0.87;;;15.90;99.90;;;;;;5090748;28;20440;-48
2022/07/02 00:24:09;;;;;;;1.00;0.67;;;15.80;99.90;;;;;;5090878;28;20463;-47
2022/07/02 00:26:39;;;;;;;2.43;0.97;;;15.80;99.90;;;;;;5090922;28;20440;-48
2022/07/02 00:29:13;;;;;;;1.67;0.87;;;15.70;99.90;;;;;;5090314;28;20455;-48
2022/07/02 00:31:41;;;;;;;1.47;0.80;;;15.60;99.90;;;;;;5090654;28;21019;-47
2022/07/02 00:34:08;;;;;;;2.23;1.30;;;15.40;99.90;;;;;;5090335;28;20562;-47
2022/07/02 00:36:38;;;;;;;1.60;1.07;;;15.30;99.90;;;;;;5090702;28;20446;-47
2022/07/02 00:39:05;;;;;;;1.50;0.80;;;15.20;99.90;;;;;;5090077;28;20568;-50
2022/07/02 00:41:33;;;;;;;1.37;1.00;;;15.00;99.90;;;;;;5090501;28;20946;-47
2022/07/02 00:44:01;;;;;;;2.23;0.90;;;14.90;99.90;;;;;;5090367;28;20519;-47
2022/07/02 00:46:29;;;;;;;1.90;0.97;;;14.90;99.90;;;;;;5090489;28;20855;-47
2022/07/02 00:48:56;;;;;;;2.50;0.60;;;14.90;99.90;;;;;;5090272;28;20509;-49
2022/07/02 00:51:23;;;;;;;1.43;0.70;;;14.90;99.90;;;;;;5090490;28;20538;-47
2022/07/02 00:53:51;;;;;;;3.10;1.03;;;15.00;99.90;;;;;;5090143;28;20555;-48
2022/07/02 00:56:18;;;;;;;1.83;0.87;;;15.00;99.90;;;;;;5090110;28;20467;-47
2022/07/02 00:58:46;;;;;;;1.20;0.70;;;15.00;99.90;;;;;;5090181;28;20455;-56
2022/07/02 01:01:13;;;;;;;1.60;1.10;;;14.90;99.90;;;;;;5090254;28;20435;-47
2022/07/02 01:03:43;;;;;;;1.70;1.10;;;15.00;99.90;;;;;;5090307;28;20448;-47
2022/07/02 01:06:10;;;;;;;2.40;1.27;;;15.00;99.90;;;;;;5090119;28;20489;-46
2022/07/02 01:11:27;;;;;;;2.70;0.90;;;15.20;99.90;;;;;;5089936;28;20414;-47
2022/07/02 01:13:55;;;;;;;1.13;0.90;;;15.20;99.90;;;;;;5089977;28;20482;-47
2022/07/02 01:16:22;;;;;;;1.63;1.00;;;15.30;99.90;;;;;;5089858;28;20995;-47
2022/07/02 01:18:49;;;;;;;1.10;0.80;;;15.30;99.90;;;;;;5090197;28;20516;-46
2022/07/02 01:21:16;;;;;;;1.20;1.00;;;15.40;99.90;;;;;;5089696;28;20717;-47
2022/07/02 01:23:44;;;;;;;2.97;1.43;;;15.50;99.90;;;;;;5090250;28;20791;-47
2022/07/02 01:26:11;;;;;;;2.00;1.27;;;15.50;99.90;;;;;;5089709;28;20483;-47
2022/07/02 01:28:38;;;;;;;2.67;1.30;;;15.40;99.90;;;;;;5096033;28;20498;-48
2022/07/02 01:31:05;;;;;;;1.53;1.17;;;15.30;99.90;;;;;;5096869;28;20436;-47
2022/07/02 01:33:32;;;;;;;2.30;1.60;;;15.20;99.90;;;;;;5096413;28;20482;-47
2022/07/02 01:35:59;;;;;;;5.20;1.40;;;15.10;99.90;;;;;;5096661;28;20435;-47
2022/07/02 01:38:26;;;;;;;1.33;1.20;;;15.10;99.90;;;;;;5096327;28;20529;-49
2022/07/02 01:41:38;;;;;;;1.80;1.53;;;15.10;99.90;;;;;;5096315;28;20511;-47
2022/07/02 01:43:42;;;;;;;5.57;1.53;;;15.00;99.90;;;;;;5096288;28;20435;-46
2022/07/02 01:46:08;;;;;;;2.00;1.80;;;15.10;99.90;;;;;;5096647;28;20530;-48
2022/07/02 01:48:35;;;;;;;1.30;1.07;;;15.10;99.90;;;;;;5096555;28;20475;-48
2022/07/02 01:51:02;;;;;;;1.80;1.30;;;15.10;99.90;;;;;;5096372;28;20478;-47
2022/07/02 01:53:29;;;;;;;2.13;1.60;;;15.20;99.90;;;;;;5096368;28;20443;-47
2022/07/02 01:55:57;;;;;;;3.27;1.10;;;15.30;99.90;;;;;;5096207;28;20474;-48
2022/07/02 01:58:24;;;;;;;3.80;1.23;;;15.30;99.90;;;;;;5096034;28;20750;-47
2022/07/02 02:00:51;;;;;;;1.67;1.20;;;15.20;99.90;;;;;;5096291;28;20931;-47
2022/07/02 02:03:18;;;;;;;2.03;1.20;;;15.10;99.90;;;;;;5096355;28;20439;-52
2022/07/02 02:05:45;;;;;;;2.03;1.30;;;15.00;99.90;;;;;;5096359;28;20484;-47
2022/07/02 02:08:12;;;;;;;2.77;1.30;;;14.90;99.90;;;;;;5096011;28;20467;-48
2022/07/02 02:10:39;;;;;;;2.80;1.57;;;14.80;99.90;;;;;;5095938;28;20474;-47
2022/07/02 02:13:07;;;;;;;1.63;1.40;;;14.70;99.90;;;;;;5095919;28;21008;-46
2022/07/02 02:15:34;;;;;;;4.17;1.70;;;14.70;99.90;;;;;;5095983;28;20830;-47
2022/07/02 02:18:01;;;;;;;1.77;1.47;;;14.80;99.90;;;;;;5096242;28;20481;-49
2022/07/02 02:20:28;;;;;;;2.60;1.33;;;14.90;99.90;;;;;;5095718;28;20453;-49
2022/07/02 02:22:55;;;;;;;2.23;1.33;;;15.00;99.90;;;;;;5096213;28;20853;-47
2022/07/02 02:25:22;;;;;;;1.70;1.30;;;14.90;99.90;;;;;;5096272;28;20439;-48
2022/07/02 02:27:49;;;;;;;3.23;1.37;;;14.90;99.90;;;;;;5096128;28;20914;-47
2022/07/02 02:30:17;;;;;;;1.60;1.27;;;14.80;99.90;;;;;;5095688;28;20471;-49
2022/07/02 02:32:44;;;;;;;4.50;1.30;;;14.70;99.90;;;;;;5096272;28;20497;-49
2022/07/02 02:35:11;;;;;;;1.80;1.70;;;14.40;99.90;;;;;;5095765;28;20509;-47
2022/07/02 02:37:38;;;;;;;1.50;1.20;;;14.40;99.90;;;;;;5095795;28;20569;-48
2022/07/02 02:40:06;;;;;;;1.70;1.57;;;14.30;99.90;;;;;;5092191;28;20482;-47
2022/07/02 02:42:33;;;;;;;2.30;1.90;;;14.40;99.90;;;;;;5092766;28;20973;-48
2022/07/02 02:45:00;;;;;;;4.63;1.60;;;14.30;99.90;;;;;;5092824;28;20544;-47
2022/07/02 02:47:28;;;;;;;3.10;1.90;;;14.20;99.90;;;;;;5092493;28;20538;-52
2022/07/02 02:49:55;;;;;;;3.20;2.10;;;14.20;99.90;;;;;;5092232;28;20500;-49
2022/07/02 02:52:22;;;;;;;1.80;1.40;;;14.40;99.90;;;;;;5092964;28;20474;-48
2022/07/02 02:54:49;;;;;;;2.07;1.20;;;14.30;99.90;;;;;;5092684;28;20555;-47
2022/07/02 02:57:16;;;;;;;1.80;1.40;;;14.20;99.90;;;;;;5092421;28;20544;-49
2022/07/02 02:59:43;;;;;;;6.53;1.23;;;14.20;99.90;;;;;;5092098;28;21015;-46
2022/07/02 03:02:10;;;;;;;2.50;1.67;;;14.30;99.90;;;;;;5092458;28;20500;-50
2022/07/02 03:04:38;;;;;;;7.40;4.23;;;14.30;99.90;;;;;;5092087;28;20522;-48
2022/07/02 03:07:05;;;;;;;3.37;3.07;;;14.40;99.90;;;;;;5092492;28;20516;-47
2022/07/02 03:09:32;;;;;;;4.90;2.70;;;14.50;99.90;;;;;;5092160;28;20943;-47
2022/07/02 03:11:59;;;;;;;2.90;2.60;;;14.50;99.90;;;;;;5092339;28;20440;-47
2022/07/02 03:14:26;;;;;;;3.33;3.03;;;14.50;99.90;;;;;;5092283;28;20501;-47
2022/07/02 03:16:53;;;;;;;2.60;2.33;;;14.40;99.90;;;;;;5092013;28;20436;-48
2022/07/02 03:19:20;;;;;;;2.43;2.23;;;14.50;99.90;;;;;;5091641;28;20968;-47
2022/07/02 03:21:48;;;;;;;3.13;2.43;;;14.40;99.90;;;;;;5091830;28;20475;-50
2022/07/02 03:24:16;;;;;;;2.97;1.70;;;14.50;99.90;;;;;;5091794;28;20471;-48
2022/07/02 03:26:43;;;;;;;2.63;1.50;;;14.50;99.90;;;;;;5092242;28;20450;-47
2022/07/02 03:29:10;;;;;;;2.00;1.30;;;14.50;99.90;;;;;;5091621;28;20964;-46
2022/07/02 03:31:37;;;;;;;1.47;1.20;;;14.50;99.90;;;;;;5092045;28;20588;-49
2022/07/02 03:34:04;;;;;;;2.10;1.30;;;14.40;99.90;;;;;;5091583;28;20812;-50
2022/07/02 03:36:30;;;;;;;1.80;1.57;;;14.20;99.90;;;;;;5091894;28;21049;-48
2022/07/02 03:38:59;;;;;;;3.20;1.60;;;14.20;99.90;;;;;;5148532;22;20582;-47
2022/07/02 03:41:26;;;;;;;2.07;1.87;;;14.30;99.90;;;;;;5091626;28;20428;-48
2022/07/02 03:43:53;;;;;;;3.43;1.50;;;14.30;99.90;;;;;;5091499;28;20467;-47
2022/07/02 03:46:20;;;;;;;1.40;1.10;;;14.40;99.90;;;;;;5091716;28;20432;-48
2022/07/02 03:48:46;;;;;;;4.03;1.57;;;14.40;99.90;;;;;;5091085;28;20747;-47
2022/07/02 03:51:14;;;;;;;2.27;1.83;;;14.30;99.90;;;;;;5091339;28;20518;-47
2022/07/02 03:53:40;;;;;;;3.67;1.07;;;14.20;99.90;;;;;;5091375;28;20472;-47
2022/07/02 03:56:09;;;;;;;1.70;1.30;;;14.00;99.90;;;;;;5091199;28;20563;-48
2022/07/02 03:58:36;;;;;;;1.93;1.33;;;14.00;99.90;;;;;;5091069;28;20895;-47
2022/07/02 04:01:03;;;;;;;1.43;1.17;;;14.10;99.90;;;;;;5091335;28;20501;-48
2022/07/02 04:03:30;;;;;;;3.00;1.60;;;14.10;99.90;;;;;;5091300;28;20490;-47
2022/07/02 04:05:57;;;;;;;3.33;1.97;;;14.10;99.90;;;;;;5091544;28;20440;-49
2022/07/02 04:08:24;;;;;;;3.90;2.33;;;14.00;99.90;;;;;;5090898;28;20489;-50
2022/07/02 04:10:51;;;;;;;4.00;2.20;;;14.00;99.90;;;;;;5090569;28;20948;-47
2022/07/02 04:13:19;;;;;;;2.43;1.87;;;14.10;99.90;;;;;;5091228;28;20439;-48
2022/07/02 04:15:46;;;;;;;2.30;2.10;;;14.10;99.90;;;;;;5090898;28;20591;-47
2022/07/02 04:18:13;;;;;;;2.53;1.37;;;14.20;99.90;;;;;;5090721;28;20547;-47
2022/07/02 04:20:40;;;;;;;2.27;1.17;;;14.20;99.90;;;;;;5090508;28;20475;-47
2022/07/02 04:23:07;;;;;;;1.57;1.47;;;14.20;99.90;;;;;;5090786;28;20487;-52
2022/07/02 04:25:33;;;;;;;1.80;1.50;;;14.20;99.90;;;;;;5090744;28;20958;-46
2022/07/02 04:28:00;;;;;;;1.73;1.23;;;14.20;99.90;;;;;;5090744;28;20459;-47
2022/07/02 04:30:29;;;;;;;1.73;1.57;;;14.20;99.90;;;;;;5090325;28;20923;-48
2022/07/02 04:32:56;;;;;;;2.60;1.40;;;14.20;99.90;;;;;;5090528;28;20992;-50
2022/07/02 04:35:23;;;;;;;1.93;1.47;;;14.30;99.90;;;;;;5090348;28;20987;-47
2022/07/02 04:37:50;;;;;;;2.27;1.20;;;14.30;99.90;;;;;;5090560;28;20468;-49
2022/07/02 04:40:17;;;;;;;2.43;1.50;;;14.30;99.90;;;;;;5090468;28;20714;-47
2022/07/02 04:42:44;;;;;;;2.17;1.60;;;14.30;99.90;;;;;;5090797;28;20448;-47
2022/07/02 04:45:11;;;;;;;2.63;1.70;;;14.30;99.90;;;;;;5090552;28;20466;-47
2022/07/02 04:47:39;;;;;;;3.43;1.87;;;14.30;99.90;;;;;;5090255;28;20513;-49
2022/07/02 04:50:07;;;;;;;3.50;3.20;;;14.30;99.90;;;;;;5090006;28;20484;-50
2022/07/02 04:52:34;;;;;;;2.80;1.90;;;14.20;99.90;;;;;;5090547;28;20494;-47
2022/07/02 04:55:01;;;;;;;4.23;2.33;;;14.20;99.90;;;;;;5090204;28;20507;-47
2022/07/02 04:57:28;;;;;;;3.30;2.03;;;14.10;99.90;;;;;;5090271;28;20468;-47
2022/07/02 04:59:55;;;;;;;2.50;1.60;;;14.00;99.90;;;;;;5089860;28;20496;-49
2022/07/02 05:02:22;;;;;;;2.27;1.87;;;13.90;99.90;;;;;;5089588;28;20478;-47
2022/07/02 05:04:51;;;;;;;2.40;2.20;;;13.90;99.90;;;;;;5090070;28;20490;-48
2022/07/02 05:07:18;;;;;;;2.13;1.93;;;14.00;99.90;;;;;;5090228;28;20493;-47
2022/07/02 05:09:44;;;;;;;3.13;2.07;;;14.00;99.90;;;;;;5090229;28;20451;-48
2022/07/02 05:12:12;;;;;;;2.90;2.60;;;14.10;99.90;;;;;;5089629;28;21023;-50
2022/07/02 05:14:39;;;;;;;3.60;3.30;;;14.00;99.90;;;;;;5090054;28;20490;-50
2022/07/02 05:17:06;;;;;;;3.33;2.70;;;14.10;99.90;;;;;;5089727;28;20484;-50
2022/07/02 05:19:33;;;;;;;3.40;2.57;;;14.10;99.90;;;;;;5089813;28;20499;-48
2022/07/02 05:22:01;;;;;;;3.10;2.00;;;14.10;99.90;;;;;;5089756;28;20492;-47
2022/07/02 05:24:28;;;;;;;3.03;2.53;;;14.20;99.90;;;;;;5090155;28;20546;-48
2022/07/02 05:26:55;;;;;;;2.50;2.10;;;14.10;99.90;;;;;;5089809;28;21006;-47
2022/07/02 05:29:22;;;;;;;4.80;2.50;;;14.20;99.90;;;;;;5089536;28;20975;-49
2022/07/02 05:31:49;;;;;;;3.50;2.23;;;14.30;99.90;;;;;;5089730;28;20440;-51
2022/07/02 05:34:16;;;;;;;3.40;2.50;;;14.30;99.90;;;;;;5089569;28;20462;-47
2022/07/02 05:36:43;;;;;;;2.43;2.03;;;14.30;99.90;;;;;;5089818;28;20569;-48
2022/07/02 05:39:11;;;;;;;2.37;2.03;;;14.30;99.90;;;;;;5089424;28;20499;-48
2022/07/02 05:41:38;;;;;;;2.97;2.30;;;14.40;99.90;;;;;;5089754;28;20496;-47
2022/07/02 05:44:05;;;;;;;2.60;2.20;;;14.40;99.90;;;;;;5090042;28;20580;-47
2022/07/02 05:46:32;;;;;;;2.10;1.90;;;14.50;99.90;;;;;;5089787;28;20501;-49
2022/07/02 05:48:59;;;;;;;3.07;2.60;;;14.50;99.90;;;;;;5089658;28;20513;-47
2022/07/02 05:51:26;;;;;;;5.43;2.23;;;14.50;99.90;;;;;;5089844;28;20535;-49
2022/07/02 05:53:53;;;;;;;4.13;2.40;;;14.60;99.90;;;;;;5089657;28;20471;-47
2022/07/02 05:56:21;;;;;;;2.30;1.90;;;14.60;99.90;;;;;;5090045;28;20503;-48
2022/07/02 05:58:48;;;;;;;2.83;2.33;;;14.70;99.90;;;;;;5089141;28;21035;-47
2022/07/02 06:01:15;;;;;;;2.17;1.90;;;14.70;99.90;;;;;;5089715;28;20451;-50
2022/07/02 06:03:42;;;;;;;2.40;2.17;;;14.80;99.90;;;;;;5089543;28;20861;-47
2022/07/02 06:08:58;;;;;;;2.37;2.10;;;15.10;99.90;;;;;;5049767;28;20445;-47
2022/07/02 06:11:29;;;;;;;2.90;2.00;;;15.20;99.90;;;;;;5089362;28;20435;-50
2022/07/02 06:13:56;;;;;;;2.60;2.07;;;15.20;99.90;;;;;;5090010;28;20483;-48
2022/07/02 06:16:23;;;;;;;2.20;2.00;;;15.20;99.90;;;;;;5093250;28;20562;-49
2022/07/02 06:18:50;;;;;;;2.87;2.00;;;15.30;99.90;;;;;;5092978;28;20499;-50
2022/07/02 06:21:16;;;;;;;2.10;1.80;;;15.40;99.90;;;;;;5092806;28;20479;-48
2022/07/02 06:23:43;;;;;;;2.13;1.57;;;15.50;99.90;;;;;;5093190;28;20447;-47
2022/07/02 06:26:10;;;;;;;2.77;1.60;;;15.60;99.90;;;;;;5092987;28;20431;-48
2022/07/02 06:28:39;;;;;;;7.60;1.80;;;15.70;99.90;;;;;;5093184;28;20495;-49
2022/07/02 06:31:05;;;;;;;2.00;1.70;;;15.80;99.90;;;;;;5093024;28;20471;-46
2022/07/02 06:33:32;;;;;;;2.10;1.90;;;15.90;99.90;;;;;;5092908;28;20504;-51
2022/07/02 06:35:59;;;;;;;2.93;2.13;;;15.90;99.90;;;;;;5092960;28;20479;-47
2022/07/02 06:38:26;;;;;;;2.83;1.80;;;16.00;99.90;;;;;;5092761;28;20471;-47
2022/07/02 06:40:54;;;;;;;2.83;2.10;;;16.10;99.90;;;;;;5092775;28;20475;-50
2022/07/02 06:43:23;;;;;;;3.20;1.43;;;16.20;99.90;;;;;;5092779;28;20504;-50
2022/07/02 06:45:52;;;;;;;1.67;1.37;;;16.10;99.90;;;;;;5092629;28;20444;-47
2022/07/02 06:48:19;;;;;;;1.40;1.23;;;16.20;99.90;;;;;;5092897;28;20464;-47
2022/07/02 06:50:46;;;;;;;1.63;1.00;;;16.30;99.90;;;;;;5092447;28;20482;-49
2022/07/02 06:53:14;;;;;;;1.83;1.40;;;16.30;99.90;;;;;;5092639;28;20497;-49
2022/07/02 06:55:41;;;;;;;6.80;2.80;;;16.40;99.90;;;;;;5092531;28;20479;-48
2022/07/02 06:58:08;;;;;;;2.57;1.10;;;16.40;99.90;;;;;;5092585;28;20542;-49
2022/07/02 07:00:36;;;;;;;1.47;1.20;;;16.60;99.90;;;;;;5092071;28;20458;-48
2022/07/02 07:03:04;;;;;;;2.77;1.17;;;16.70;99.90;;;;;;5092807;28;20490;-48
2022/07/02 07:05:32;;;;;;;2.13;1.40;;;16.70;99.90;;;;;;5092485;28;20435;-48
2022/07/02 07:07:59;;;;;;;1.23;1.03;;;16.80;99.90;;;;;;5092352;28;20559;-49
2022/07/02 07:10:26;;;;;;;2.23;1.20;;;16.90;99.90;;;;;;5092232;28;20435;-47
2022/07/02 07:12:53;;;;;;;1.70;1.17;;;17.00;99.90;;;;;;5091686;28;21016;-50
2022/07/02 07:15:20;;;;;;;1.37;1.03;;;16.90;99.90;;;;;;5092432;28;20505;-48
2022/07/02 07:17:47;;;;;;;3.17;1.27;;;17.00;99.90;;;;;;5092096;28;21055;-47
2022/07/02 07:20:19;;;;;;;1.30;0.70;;;17.20;99.90;;;;;;5091897;28;20444;-51
2022/07/02 07:22:46;;;;;;;2.23;1.13;;;17.30;99.90;;;;;;5092019;28;20467;-51
2022/07/02 07:25:13;;;;;;;2.17;1.10;;;17.60;99.90;;;;;;5091849;28;20526;-48
2022/07/02 07:27:40;;;;;;;1.63;1.07;;;17.70;99.90;;;;;;5092000;28;20532;-47
2022/07/02 07:30:07;;;;;;;1.23;0.80;;;17.80;99.90;;;;;;5091606;28;20474;-48
2022/07/02 07:32:34;;;;;;;2.17;1.13;;;18.00;99.90;;;;;;5091819;28;20486;-51
2022/07/02 07:35:01;;;;;;;1.40;1.10;;;18.10;99.90;;;;;;5091666;28;20492;-49
2022/07/02 07:37:29;;;;;;;1.93;1.53;;;18.20;99.90;;;;;;5091347;28;20562;-48
2022/07/02 07:39:56;;;;;;;1.83;0.90;;;18.20;99.90;;;;;;5091650;28;20446;-48
2022/07/02 07:42:23;;;;;;;2.10;1.23;;;18.00;99.90;;;;;;5091983;28;20471;-48
2022/07/02 07:44:50;;;;;;;2.20;1.17;;;18.10;99.90;;;;;;5091532;28;20440;-48
2022/07/02 07:47:17;;;;;;;1.37;1.07;;;18.20;99.90;;;;;;5091453;28;20463;-48
2022/07/02 07:49:44;;;;;;;1.50;1.10;;;18.30;99.90;;;;;;5091164;28;20478;-49
2022/07/02 07:52:11;;;;;;;1.80;1.30;;;18.20;99.90;;;;;;5091909;28;20467;-47
2022/07/02 07:54:40;;;;;;;1.33;1.07;;;18.30;99.90;;;;;;5091866;28;20450;-50
2022/07/02 07:57:07;;;;;;;1.57;1.20;;;18.50;99.90;;;;;;5091273;28;20510;-47
2022/07/02 07:59:34;;;;;;;1.33;1.20;;;18.30;99.90;;;;;;5091164;28;20495;-48
2022/07/02 08:02:01;;;;;;;1.30;1.07;;;18.40;99.90;;;;;;5091383;28;20485;-49
2022/07/02 08:04:29;;;;;;;2.90;1.23;;;18.40;99.90;;;;;;5091124;28;20999;-51
2022/07/02 08:06:56;;;;;;;2.33;1.10;;;18.60;99.90;;;;;;5091446;28;20457;-48
2022/07/02 08:09:23;;;;;;;1.40;1.07;;;18.50;99.90;;;;;;5090998;28;20494;-48
2022/07/02 08:11:51;;;;;;;3.40;1.40;;;18.50;99.90;;;;;;5090726;28;20486;-48
2022/07/02 08:14:18;;;;;;;1.40;1.17;;;18.80;99.90;;;;;;5091042;28;20436;-48
2022/07/02 08:16:45;;;;;;;1.47;1.07;;;19.10;99.90;;;;;;5090922;28;20475;-51
2022/07/02 08:19:12;;;;;;;2.00;1.40;;;19.30;99.90;;;;;;5090499;28;20557;-48
2022/07/02 08:21:39;;;;;;;1.60;1.20;;;19.40;99.90;;;;;;5090744;28;20451;-48
2022/07/02 08:24:06;;;;;;;1.53;1.07;;;19.20;99.90;;;;;;5090987;28;20482;-49
2022/07/02 08:26:33;;;;;;;2.43;1.20;;;18.90;99.90;;;;;;5090750;28;20967;-48
2022/07/02 08:29:01;;;;;;;1.73;1.00;;;18.80;99.90;;;;;;5090598;28;20555;-50
2022/07/02 08:31:28;;;;;;;2.23;1.70;;;19.00;99.90;;;;;;5090827;28;20481;-51
2022/07/02 08:33:55;;;;;;;1.50;1.10;;;19.30;99.90;;;;;;5090442;28;20436;-48
2022/07/02 08:36:22;;;;;;;1.30;1.10;;;19.40;99.90;;;;;;5090197;28;20571;-47
2022/07/02 08:38:49;;;;;;;3.63;1.37;;;19.60;99.90;;;;;;5090032;28;20844;-50
2022/07/02 08:41:17;;;;;;;1.80;1.50;;;19.70;99.90;;;;;;5090599;28;20474;-47
2022/07/02 08:43:45;;;;;;;1.80;1.43;;;19.70;99.90;;;;;;5090544;28;20471;-48
2022/07/02 08:46:15;;;;;;;1.67;1.57;;;19.70;99.90;;;;;;5090698;28;20440;-47
2022/07/02 08:48:42;;;;;;;3.10;1.63;;;19.80;99.90;;;;;;5090359;28;20494;-49
2022/07/02 08:51:10;;;;;;;1.47;1.20;;;19.70;99.90;;;;;;5090341;28;20492;-50
2022/07/02 08:53:39;;;;;;;2.30;2.10;;;19.60;99.90;;;;;;5090441;28;20435;-51
2022/07/02 08:56:07;;;;;;;3.00;1.67;;;19.70;99.90;;;;;;5090725;28;20997;-48
2022/07/02 08:58:35;;;;;;;1.87;1.57;;;19.70;99.90;;;;;;5090372;28;20539;-49
2022/07/02 09:01:04;;;;;;;1.93;1.77;;;19.90;99.90;;;;;;5090410;28;20520;-48
2022/07/02 09:03:33;;;;;;;1.90;1.60;;;20.10;99.90;;;;;;5090411;28;20526;-47
2022/07/02 09:06:02;;;;;;;2.03;1.83;;;20.00;99.90;;;;;;5090658;28;20450;-48
2022/07/02 09:08:30;;;;;;;2.10;1.90;;;20.00;99.90;;;;;;5089958;28;20467;-48
2022/07/02 09:10:58;;;;;;;2.27;1.70;;;20.00;99.90;;;;;;5090077;28;20496;-48
2022/07/02 09:13:26;;;;;;;2.20;1.80;;;20.10;99.90;;;;;;5090370;28;20443;-48
2022/07/02 09:15:52;;;;;;;3.03;2.20;;;20.20;99.90;;;;;;5090090;28;20463;-51
2022/07/02 09:18:19;;;;;;;3.77;1.80;;;20.30;99.90;;;;;;5089848;28;20893;-47
2022/07/02 09:20:48;;;;;;;1.90;1.70;;;20.20;99.90;;;;;;5089462;28;20498;-49
2022/07/02 09:23:20;;;;;;;4.17;1.93;;;20.10;99.90;;;;;;5090184;28;20486;-47
2022/07/02 09:25:47;;;;;;;2.37;2.17;;;20.10;99.90;;;;;;5090135;28;20443;-49
2022/07/02 09:28:15;;;;;;;2.63;1.93;;;20.20;99.90;;;;;;5089869;28;20550;-48
2022/07/02 09:30:43;;;;;;;5.07;2.10;;;20.20;99.90;;;;;;5089617;28;20439;-48
2022/07/02 09:33:30;;;;;;;2.00;1.80;;;20.20;99.90;;;;;;5089829;28;20435;-49
2022/07/02 09:36:00;;;;;;;2.87;2.10;;;20.30;99.90;;;;;;5089748;28;20454;-49
2022/07/02 09:38:27;;;;;;;2.10;1.90;;;20.50;99.90;;;;;;5146972;22;20548;-48
2022/07/02 09:40:55;;;;;;;2.47;2.27;;;20.40;99.90;;;;;;5089305;28;20443;-50
2022/07/02 09:43:29;;;;;;;2.30;2.10;;;20.40;99.90;;;;;;5089871;28;20475;-49
2022/07/02 09:45:57;;;;;;;1.70;1.60;;;20.40;99.90;;;;;;5089712;28;20975;-48
2022/07/02 09:48:24;;;;;;;2.17;1.97;;;20.50;99.90;;;;;;5090755;28;20530;-47
2022/07/02 09:50:52;;;;;;;2.00;1.80;;;20.60;99.90;;;;;;5093555;28;20861;-52
2022/07/02 09:53:20;;;;;;;3.00;2.03;;;20.70;99.90;;;;;;5093996;28;20439;-49
2022/07/02 09:55:50;;;;;;;2.33;2.10;;;20.50;99.90;;;;;;5094018;28;20483;-48
2022/07/02 09:58:24;;;;;;;2.47;2.27;;;20.20;99.90;;;;;;5093517;28;20916;-47
2022/07/02 10:00:52;;;;;;;2.40;2.20;;;20.10;99.90;;;;;;5093502;28;20533;-50
2022/07/02 10:03:19;;;;;;;2.00;1.80;;;20.30;99.90;;;;;;5093538;28;20531;-48
2022/07/02 10:05:49;;;;;;;2.90;2.30;;;20.50;99.90;;;;;;5093516;28;20797;-51
2022/07/02 10:08:16;;;;;;;2.17;1.97;;;20.30;99.90;;;;;;5093454;28;20487;-47
2022/07/02 10:10:46;;;;;;;1.93;1.73;;;20.00;99.90;;;;;;5092869;28;20475;-57
2022/07/02 10:13:14;;;;;;;2.43;2.23;;;19.90;99.90;;;;;;5093311;28;20443;-47
2022/07/02 10:15:49;;;;;;;2.87;2.10;;;20.10;99.90;;;;;;5093432;28;20944;-48
2022/07/02 10:18:17;;;;;;;2.47;1.60;;;20.40;99.90;;;;;;5093195;28;20923;-47
2022/07/02 10:20:44;;;;;;;3.43;1.90;;;20.50;99.90;;;;;;5093007;28;20436;-48
2022/07/02 10:23:13;;;;;;;2.10;1.90;;;20.40;99.90;;;;;;5093156;28;20939;-47
2022/07/02 10:25:40;;;;;;;2.17;1.97;;;20.40;99.90;;;;;;5093543;28;20535;-49
2022/07/02 10:28:08;;;;;;;2.20;2.00;;;20.50;99.90;;;;;;5092862;28;20445;-50
2022/07/02 10:30:36;;;;;;;1.73;1.60;;;20.50;99.90;;;;;;5092763;28;20796;-50
2022/07/02 10:33:09;;;;;;;2.33;1.87;;;20.70;99.90;;;;;;5093223;28;20439;-48
2022/07/02 10:35:38;;;;;;;2.77;2.00;;;20.80;99.90;;;;;;5092800;28;20967;-48
2022/07/02 10:38:07;;;;;;;1.73;1.63;;;20.80;99.90;;;;;;5092662;28;20475;-51
2022/07/02 10:40:47;;;;;;;1.90;1.47;;;20.90;99.90;;;;;;5093205;28;20501;-47
2022/07/02 10:43:17;;;;;;;1.50;1.30;;;21.00;99.90;;;;;;5092868;28;20445;-47
2022/07/02 10:45:44;;;;;;;1.30;0.90;;;21.20;99.90;;;;;;5092792;28;20474;-52
2022/07/02 10:48:13;;;;;;;1.40;1.10;;;21.20;99.90;;;;;;5092469;28;20513;-48
2022/07/02 10:50:43;;;;;;;4.53;1.30;;;21.20;99.90;;;;;;5092627;28;20432;-47
2022/07/02 10:53:12;;;;;;;1.60;1.33;;;21.20;99.90;;;;;;5092712;28;20496;-47
2022/07/02 10:55:40;;;;;;;1.50;1.10;;;21.00;99.90;;;;;;5092486;28;20493;-51
2022/07/02 10:58:08;;;;;;;1.37;1.03;;;21.10;99.90;;;;;;5092371;28;20528;-51
2022/07/02 11:00:38;;;;;;;1.40;1.20;;;21.20;99.90;;;;;;5091490;28;20469;-50
2022/07/02 11:03:14;;;;;;;1.67;1.00;;;21.20;99.90;;;;;;5092626;28;20474;-51
2022/07/02 11:05:58;;;;;;;1.40;1.00;;;21.20;99.90;;;;;;5092427;28;20439;-48
2022/07/02 11:08:49;;;;;;;2.90;1.40;;;21.40;99.90;;;;;;5092182;28;20517;-47
2022/07/02 11:11:20;;;;;;;2.03;1.33;;;21.40;99.90;;;;;;5092152;28;20463;-48
2022/07/02 11:13:49;;;;;;;2.50;1.37;;;21.40;99.90;;;;;;5092158;28;20470;-48
2022/07/02 11:16:25;;;;;;;1.47;1.37;;;21.40;99.90;;;;;;5092255;28;20488;-49
2022/07/02 11:18:53;;;;;;;2.37;1.50;;;21.50;99.90;;;;;;5091837;28;20495;-50
2022/07/02 11:21:21;;;;;;;1.73;1.50;;;21.50;99.90;;;;;;5091827;28;20539;-50
2022/07/02 11:23:49;;;;;;;1.50;1.40;;;21.60;99.90;;;;;;5091925;28;20471;-51
2022/07/02 11:26:17;;;;;;;3.07;1.80;;;21.60;99.90;;;;;;5091884;28;20562;-49
2022/07/02 11:28:45;;;;;;;1.60;1.30;;;21.50;99.90;;;;;;5092002;28;20455;-47
2022/07/02 11:31:12;;;;;;;1.60;1.20;;;21.50;99.90;;;;;;5092083;28;20448;-47
2022/07/02 11:33:46;;;;;;;1.60;1.30;;;21.60;99.90;;;;;;5091750;28;20522;-51
2022/07/02 11:36:13;;;;;;;1.50;1.40;;;21.70;99.90;;;;;;5091964;28;20509;-48
2022/07/02 11:38:40;;;;;;;2.00;1.30;;;21.70;99.90;;;;;;5091438;28;20566;-52
2022/07/02 11:41:21;;;;;;;1.40;1.30;;;21.70;99.90;;;;;;5091807;28;20738;-49
2022/07/02 11:43:49;;;;;;;1.40;1.17;;;21.60;99.90;;;;;;5091870;28;20536;-49
2022/07/02 11:46:20;;;;;;;1.50;1.40;;;21.60;99.90;;;;;;5091550;28;20467;-48
2022/07/02 11:48:49;;;;;;;2.87;1.47;;;21.50;99.90;;;;;;5091245;28;20820;-47
2022/07/02 11:51:16;;;;;;;1.97;1.40;;;21.50;99.90;;;;;;5091458;28;20439;-48
2022/07/02 11:53:44;;;;;;;1.50;1.20;;;21.50;99.90;;;;;;5091592;28;20475;-50
2022/07/02 11:56:13;;;;;;;2.07;1.20;;;21.50;99.90;;;;;;5091452;28;20522;-48
2022/07/02 11:58:45;;;;;;;2.20;1.10;;;21.50;99.90;;;;;;5090900;28;20581;-48
2022/07/02 12:01:24;;;;;;;1.30;1.10;;;21.60;99.90;;;;;;5091505;28;20443;-48
2022/07/02 12:03:55;;;;;;;1.50;1.40;;;21.50;99.90;;;;;;5091376;28;20530;-49
2022/07/02 12:06:24;;;;;;;1.60;1.30;;;21.50;99.90;;;;;;5091388;28;20506;-48
2022/07/02 12:08:53;;;;;;;1.60;1.30;;;21.60;99.90;;;;;;5090810;28;20486;-47
2022/07/02 12:11:21;;;;;;;1.60;1.30;;;21.80;99.90;;;;;;5090576;28;20451;-49
2022/07/02 12:13:49;;;;;;;1.50;1.20;;;21.90;99.90;;;;;;5091005;28;20966;-49
2022/07/02 12:16:18;;;;;;;2.03;1.27;;;22.00;99.90;;;;;;5091410;28;20872;-50
2022/07/02 12:18:45;;;;;;;1.50;1.20;;;22.00;99.90;;;;;;5090716;28;20904;-49
2022/07/02 12:21:17;;;;;;;3.30;1.53;;;22.10;99.90;;;;;;5090356;28;20444;-51
2022/07/02 12:23:46;;;;;;;1.40;1.30;;;22.10;99.90;;;;;;5091147;28;20454;-50
2022/07/02 12:26:22;;;;;;;1.80;1.30;;;22.20;99.90;;;;;;5090735;28;21099;-49
2022/07/02 12:31:50;;;;;;;2.30;1.70;;;22.30;99.90;;;;;;5090827;28;20492;-47
2022/07/02 12:34:18;;;;;;;1.60;1.50;;;22.30;99.90;;;;;;5090440;28;20443;-51
2022/07/02 12:36:54;;;;;;;1.70;1.50;;;22.40;99.90;;;;;;5090684;28;21030;-51
2022/07/02 12:39:24;;;;;;;2.00;1.57;;;22.50;99.90;;;;;;5090121;28;20507;-52
2022/07/02 12:41:51;;;;;;;1.40;1.20;;;22.50;99.90;;;;;;5090474;28;20480;-47
2022/07/02 12:44:23;;;;;;;1.80;1.13;;;22.50;99.90;;;;;;5090653;28;20504;-48
2022/07/02 12:46:53;;;;;;;1.77;1.43;;;22.60;99.90;;;;;;5090503;28;20500;-47
2022/07/02 12:49:22;;;;;;;1.97;1.60;;;22.60;99.90;;;;;;5089661;28;20806;-48
2022/07/02 12:52:11;;;;;;;1.83;1.60;;;22.60;99.90;;;;;;5089935;28;20480;-51
2022/07/02 12:54:40;;;;;;;1.60;1.50;;;22.80;99.90;;;;;;5083869;28;20871;-52
2022/07/02 12:57:18;;;;;;;2.33;1.50;;;22.80;99.90;;;;;;5090073;28;20492;-50
2022/07/02 12:59:45;;;;;;;1.73;1.40;;;22.80;99.90;;;;;;5089591;28;21004;-48
2022/07/02 13:02:18;;;;;;;2.00;1.53;;;22.90;99.90;;;;;;5089881;28;20738;-52